Overview Statistics Trail Chart Weather Telemetry Raw packets
 

This is the latest recevied weather packets stored in our database for station/object PU5FJO-13. If no packets are shown the sender has not sent any weather packets the latest 10 day(s).

<< 45 46 47 48 49 50 51 >>
Time Temp. Humidity Pressure Rain* Wind** Luminosity Snow
1777122363 23.89° C 72% 1012.3 hPa - - - -
1777121763 23.89° C 73% 1012.5 hPa - - - -
1777121163 23.33° C 75% 1012.6 hPa - - - -
1777120563 23.89° C 76% 1012.3 hPa - - - -
1777119963 23.33° C 78% 1012.2 hPa - - - -
1777119363 23.89° C 76% 1012.1 hPa - - - -
1777118763 23.89° C 75% 1012 hPa - - - -
1777118163 24.44° C 74% 1011.6 hPa - - - -
1777117563 25° C 70% 1011.2 hPa - - - -
1777116963 24.44° C 73% 1011 hPa - - - -
1777116363 23.89° C 74% 1011 hPa - - - -
1777115763 22.78° C 77% 1011 hPa - - - -
1777115163 22.78° C 80% 1011.4 hPa - - - -
1777114563 22.22° C 82% 1011.4 hPa - - - -
1777113963 21.67° C 82% 1011.1 hPa - - - -
1777113363 21.67° C 82% 1011.3 hPa - - - -
1777112763 22.22° C 79% 1011.3 hPa - - - -
1777112163 22.22° C 80% 1011.3 hPa - - - -
1777111563 22.22° C 81% 1011.4 hPa - - - -
1777110963 22.22° C 81% 1011.6 hPa - - - -
1777110363 22.22° C 81% 1011.4 hPa - - - -
1777109763 21.67° C 81% 1011.5 hPa - - - -
1777109163 21.67° C 83% 1011.6 hPa - - - -
1777108563 21.67° C 83% 1011.7 hPa - - - -
1777107963 21.67° C 82% 1011.8 hPa - - - -

* Rain since midnight (hover to see other rain measurements)
** Current wind speed in m/s (hover to see current wind gust speed)